• Join FlightAware (Why Join?)
  • Login
  • US Flag 
08:27PM EDT


 

Airport Tracker/Info


-or-


 

Live Flight TrackerFlight Track Log ✈ ASQ4443 ✈ 03-May-2013 ✈ KCVG - KEWR

Flight Track Log - Related Links

Times and Time Zones

All times are in EDT time to prevent confusion due to time zone crossing. See the ASQ4443 flight status page for this flight to view local times or setup timezone preferences in your user account.

Time Position Orientation Groundspeed Altitude Reporting Facility
EDT Latitude Longitude Course Direction KTS MPH feet Rate Location/Type
04:39PM 39.0333 -84.6667 North 160 184 1,300  Level Cincinnati TRACON
04:41PM 39.0167 -84.6000 108° East 224 258 3,200 1,860 Climbing Cincinnati TRACON
04:42PM 39.0333 -84.5167 76° East 238 274 5,600 1,920 Climbing Cincinnati TRACON
04:43PM 39.1072 -84.4000 North  Level FlightAware Approximate
04:43PM 39.0903 -84.4036 57° Northeast 285 328 8,400  Level Indianapolis Center
04:44PM 39.2069 -84.4000 North  Level FlightAware Approximate
04:44PM 39.1725 -84.3769 14° North 305 351 10,300  Level Indianapolis Center
04:45PM 39.3066 -84.4000 North  Level FlightAware Approximate
04:45PM 39.2636 -84.3472 14° North 327 376 11,500  Level Indianapolis Center
04:46PM 39.3611 -84.3214 12° North 347 399 12,800 1,140 Climbing Indianapolis Center
04:47PM 39.4628 -84.2928 12° North 364 419 13,900 1,140 Climbing Indianapolis Center
04:48PM 39.5683 -84.2617 13° North 379 436 15,200 1,140 Climbing Indianapolis Center
04:49PM 39.6739 -84.2303 13° North 383 441 16,300 1,140 Climbing Indianapolis Center
04:50PM 39.7786 -84.1869 18° North 389 448 17,600 1,140 Climbing Indianapolis Center
04:51PM 39.8600 -84.0947 41° Northeast 386 444 18,700 1,020 Climbing Indianapolis Center
04:52PM 39.9514 -83.9806 44° Northeast 385 443 19,800 960 Climbing Indianapolis Center
04:54PM 40.0331 -83.8778 44° Northeast 400 460 20,800 960 Climbing Indianapolis Center
04:55PM 40.1161 -83.7733 44° Northeast 406 467 21,900 1,020 Climbing Indianapolis Center
04:56PM 40.1983 -83.6694 44° Northeast 405 466 23,000 900 Climbing Indianapolis Center
04:57PM 40.2797 -83.5650 44° Northeast 402 463 23,800 960 Climbing Indianapolis Center
04:58PM 40.3628 -83.4594 44° Northeast 409 471 25,100 1,080 Climbing Indianapolis Center
04:59PM 40.4431 -83.3561 44° Northeast 400 460 26,100 900 Climbing Indianapolis Center
05:00PM 40.5242 -83.2528 44° Northeast 401 461 27,000 780 Climbing Indianapolis Center
05:01PM 40.6081 -83.1442 44° Northeast 404 465 27,800 960 Climbing Indianapolis Center
05:02PM 40.6867 -83.0447 44° Northeast 397 457 29,000 1,140 Climbing Cleveland Center
05:03PM 40.7725 -82.9328 45° Northeast 397 457 30,100 1,200 Climbing Cleveland Center
05:04PM 40.8475 -82.8339 45° Northeast 397 457 31,400 1,020 Climbing Cleveland Center
05:05PM 40.9244 -82.7322 45° Northeast 392 451 32,200 780 Climbing Cleveland Center
05:06PM 41.0056 -82.6275 44° Northeast 392 451 33,000 360 Climbing Cleveland Center
05:07PM 41.0889 -82.5172 45° Northeast 409 471 33,000  Level Cleveland Center
05:08PM 41.1761 -82.4039 44° Northeast 428 493 33,000 300 Level Cleveland Center
05:09PM 41.2572 -82.2983 44° Northeast 441 507 33,700 480 Climbing Cleveland Center
05:10PM 41.3442 -82.1789 46° Northeast 446 513 34,000 120 Climbing Cleveland Center
05:11PM 41.3986 -82.0197 65° Northeast 454 522 34,000  Level Cleveland Center
05:12PM 41.4483 -81.8603 67° East 453 521 34,000  Level Cleveland Center
05:13PM 41.4981 -81.6839 69° East 458 527 34,000  Level Cleveland Center
05:14PM 41.5411 -81.5264 70° East 453 521 34,000 360 Level Cleveland Center
05:15PM 41.5842 -81.3717 70° East 447 514 34,800 900 Climbing Cleveland Center
05:16PM 41.6267 -81.2192 70° East 442 509 35,900 960 Climbing Cleveland Center
05:17PM 41.6672 -81.0750 69° East 425 489 36,800 540 Climbing Cleveland Center
05:18PM 41.7031 -80.9392 70° East 425 489 37,000 60 Climbing Cleveland Center
05:19PM 41.7450 -80.7892 69° East 425 489 37,000  Level Cleveland Center
05:20PM 41.7619 -80.6278 82° East 425 489 37,000  Level Cleveland Center
05:21PM 41.7472 -80.4581 97° East 433 498 37,000  Level Cleveland Center
05:22PM 41.7283 -80.2856 98° East 459 528 37,000  Level Cleveland Center
05:23PM 41.7131 -80.1186 97° East 464 534 37,000  Level Cleveland Center
05:24PM 41.6975 -79.9297 96° East 464 534 37,000  Level Cleveland Center
05:25PM 41.6797 -79.7603 98° East 464 534 37,000  Level Cleveland Center
05:26PM 41.6619 -79.5964 98° East 459 528 37,000  Level Cleveland Center
05:27PM 41.6458 -79.4328 97° East 448 516 37,000  Level Cleveland Center
05:28PM 41.6294 -79.2692 98° East 448 516 37,000  Level Cleveland Center
05:29PM 41.6128 -79.1028 98° East 448 516 37,000  Level Cleveland Center
05:30PM 41.5939 -78.9367 99° East 448 516 37,000  Level Cleveland Center
05:31PM 41.5747 -78.7733 99° East 448 516 37,000  Level Cleveland Center
05:32PM 41.5575 -78.6103 98° East 448 516 37,000  Level Cleveland Center
05:33PM 41.5397 -78.4442 98° East 448 516 37,000 -240 Level Cleveland Center
05:34PM 41.5200 -78.2811 99° East 448 516 36,600 -900 Descending Cleveland Center
05:35PM 41.5019 -78.1156 98° East 448 516 35,200 -1,320 Descending Cleveland Center
05:35PM 41.4956 -78.0611 99° East 441 507 34,800 -2,040 Descending New York Center
05:36PM 41.4764 -77.8956 99° East 456 525 32,500 -1,920 Descending New York Center
05:37PM 41.4531 -77.7269 100° East 456 525 31,000 -960 Descending New York Center
05:38PM 41.4261 -77.5803 104° East 456 525 30,600 -960 Descending New York Center
05:39PM 41.3978 -77.4169 103° East 456 525 29,100 -1,620 Descending New York Center
05:40PM 41.3622 -77.2339 104° East 456 525 27,400 -1,380 Descending New York Center
05:41PM 41.3314 -77.0678 104° East 461 531 26,400 -960 Descending New York Center
05:42PM 41.3028 -76.9022 103° East 461 531 25,500 -960 Descending New York Center
05:43PM 41.2717 -76.7364 104° East 461 531 24,600 -960 Descending New York Center
05:44PM 41.2400 -76.5736 104° East 461 531 23,600 -1,380 Descending New York Center
05:45PM 41.2103 -76.4139 104° East 455 524 21,800 -1,860 Descending New York Center
05:46PM 41.1800 -76.2569 104° East 449 517 19,900 -2,100 Descending New York Center
05:47PM 41.1536 -76.1058 103° East 430 495 17,800 -1,920 Descending New York Center
05:48PM 41.1222 -75.9683 107° East 408 470 16,200 -1,500 Descending New York Center
05:49PM 41.0881 -75.8475 111° Southeast 390 449 14,800 -1,500 Descending New York Center
05:50PM 41.0483 -75.7014 110° East 383 441 13,200 -960 Descending New York Center
05:51PM 41.0119 -75.5722 110° East 378 435 12,900 -300 Descending New York Center
05:52PM 40.9756 -75.4433 110° East 378 435 12,700 -840 Descending New York Center
05:53PM 40.9422 -75.3311 111° Southeast 373 429 11,300 -1,320 Descending New York Center
05:54PM 40.9131 -75.2219 109° East 337 388 10,100 -1,200 Descending New York Center
05:55PM 40.8836 -75.1186 111° Southeast 284 327 8,900 -1,080 Descending New York Center
05:56PM 40.8558 -75.0236 111° Southeast 275 316 8,000 -960 Descending New York Center
05:57PM 40.8339 -74.9397 109° East 275 316 7,100 -540 Descending New York Center
05:58PM 40.8311 -74.8383 92° East 262 302 7,000 -420 Descending New York Center
05:59PM 40.8611 -74.7522 65° Northeast 254 292 6,300 -540 Descending New York Center
06:00PM 40.9014 -74.6722 56° Northeast 254 292 6,000 -180 Descending New York Center
06:01PM 40.9392 -74.5947 57° Northeast 247 284 6,000 -300 Level New York Center
06:02PM 40.9747 -74.5281 55° Northeast 240 276 5,500 -540 Descending New York Center
06:03PM 41.0119 -74.4722 49° Northeast 225 259 5,000 -300 Descending New York Center
06:04PM 41.0372 -74.3939 67° East 205 236 5,000  Level New York Center
06:05PM 41.0333 -74.3333 95° East 223 257 5,000 -540 Level New York TRACON
06:06PM 41.0000 -74.2500 118° Southeast 218 251 4,100 -540 Descending New York TRACON
06:07PM 40.9667 -74.1833 123° Southeast 216 249 4,000 -60 Descending New York TRACON
06:08PM 40.9333 -74.1500 143° Southeast 219 252 4,000 -180 Level New York TRACON
06:09PM 40.8667 -74.1167 159° South 224 258 3,700 -600 Descending New York TRACON
06:10PM 40.8167 -74.1000 166° South 221 254 2,800 -720 Descending New York TRACON
06:11PM 40.7667 -74.1167 194° South 174 200 2,400 -960 Descending New York TRACON
06:12PM 40.7333 -74.1333 201° Southwest 124 143 900 -1,500 Descending New York TRACON